Flight Track Log - Related Links

Times and Time Zones

All times are in EST time to prevent confusion due to time zone crossing. See the N118RT flight status page for this flight to view local times or setup timezone preferences in your user account.


Time Position Orientation Groundspeed Altitude Reporting Facility
EST Latitude Longitude Course Direction KTS MPH feet Rate Location/Type
Thu 01:27:31 PM 31.8381 -106.3289 86° East 215 247 6,400  Level Albuquerque Center
Thu 01:27:56 PM 31.8400 -106.2981 86° East 224 258 7,600 2,233 Climbing Albuquerque Center
Thu 01:28:14 PM 31.8400 -106.2808 90° East 234 269 8,000 2,613 Climbing Albuquerque Center
Thu 01:28:58 PM 31.8042 -106.2378 134° Southeast 238 274 10,300 2,800 Climbing Albuquerque Center
Thu 01:29:14 PM 31.7933 -106.2250 135° Southeast 249 287 10,800 2,516 Climbing Albuquerque Center
Thu 01:30:00 PM 31.7522 -106.1853 141° Southeast 246 283 12,900 2,667 Climbing Albuquerque Center
Thu 01:31:02 PM 31.6992 -106.1297 138° Southeast 254 292 15,600 1,968 Climbing Albuquerque Center
Thu 01:32:05 PM 31.6308 -106.0586 138° Southeast 274 315 17,000 1,200 Climbing Albuquerque Center
Thu 01:33:07 PM 31.5631 -105.9878 138° Southeast 323 372 18,100 1,597 Climbing Albuquerque Center
Thu 01:34:09 PM 31.5025 -105.9253 139° Southeast 294 338 20,300 2,323 Climbing Albuquerque Center
Thu 01:35:11 PM 31.4467 -105.8661 138° Southeast 273 314 22,900 2,032 Climbing Albuquerque Center
Thu 01:36:13 PM 31.3911 -105.8078 138° Southeast 269 310 24,500 1,645 Climbing Albuquerque Center
Thu 01:37:15 PM 31.3331 -105.7478 139° Southeast 279 321 26,300 1,401 Climbing Albuquerque Center
Thu 01:43:04 PM 30.9480 -105.3880 139° Southeast 261 300 34,100 1,317 Climbing FlightAware ADS-B
Thu 01:43:24 PM 30.9240 -105.3900 184° South 262 302 34,400 265 Climbing FlightAware ADS-B
Thu 01:44:12 PM 30.8750 -105.3920 182° South 262 302 34,400 815 Level FlightAware ADS-B
Thu 01:44:45 PM 30.8220 -105.3770 166° South 290 334 35,500 1,529 Climbing FlightAware ADS-B
Thu 01:45:03 PM 30.8000 -105.3670 159° South 297 342 35,700 913 Climbing FlightAware ADS-B
Thu 01:46:17 PM 30.7050 -105.3300 161° South 289 333 36,900 841 Climbing FlightAware ADS-B
Thu 01:46:50 PM 30.6640 -105.3150 163° South 292 336 37,200 254 Climbing FlightAware ADS-B
Thu 01:47:28 PM 30.6230 -105.2980 160° South 292 336 37,200 507 Level FlightAware ADS-B
Thu 01:48:01 PM 30.5700 -105.2790 163° South 299 344 37,800 1,130 Climbing FlightAware ADS-B
Thu 01:48:37 PM 30.5230 -105.2610 162° South 290 334 38,500 800 Climbing FlightAware ADS-B
Thu 01:49:31 PM 30.4530 -105.2340 162° South 292 336 39,000 254 Climbing FlightAware ADS-B
Thu 01:50:35 PM 30.3700 -105.2030 162° South 307 353 39,000  Level FlightAware ADS-B
Thu 01:51:05 PM 30.3280 -105.1870 162° South 312 359 39,000  Level FlightAware ADS-B
Thu 01:51:53 PM 30.2600 -105.1620 162° South 318 366 39,000  Level FlightAware ADS-B
Thu 01:52:19 PM 30.2270 -105.1490 161° South 318 366 39,000  Level FlightAware ADS-B
Thu 01:53:23 PM 30.1440 -105.1170 162° South 320 368 39,000 692 Level FlightAware ADS-B
Thu 01:54:03 PM 30.0840 -105.0950 162° South 296 341 40,200 1,067 Climbing FlightAware ADS-B
Thu 01:54:53 PM 30.0200 -105.0710 162° South 293 337 40,600 466 Climbing FlightAware ADS-B
Thu 01:55:46 PM 29.9520 -105.0450 162° South 292 336 41,000 304 Climbing FlightAware ADS-B
Thu 01:56:12 PM 29.9240 -105.0340 161° South 292 336 41,000  Level FlightAware ADS-B
Thu 01:56:48 PM 29.8850 -105.0180 160° South 292 336 41,000  Level FlightAware ADS-B
Thu 01:57:24 PM 29.8460 -105.0030 162° South 292 336 41,000  Level FlightAware ADS-B
Thu 01:58:00 PM 29.8070 -104.9870 160° South 292 336 41,000  Level FlightAware ADS-B
Thu 01:58:55 PM 29.6970 -104.9500 164° South 314 361 41,000  Level FlightAware ADS-B
Thu 01:59:39 PM 29.6350 -104.9270 162° South 317 365 41,000  Level FlightAware ADS-B
Thu 02:00:01 PM 29.6040 -104.9150 161° South 316 364 41,000  Level FlightAware ADS-B
Thu 02:00:52 PM 29.5440 -104.8910 161° South 316 364 41,000  Level FlightAware ADS-B
Thu 02:01:26 PM 29.5040 -104.8760 162° South 316 364 41,000  Level FlightAware ADS-B
Thu 02:01:48 PM 29.4780 -104.8650 160° South 316 364 41,000  Level FlightAware ADS-B
Thu 02:03:00 PM 29.3940 -104.8320 161° South 316 364 41,000  Level FlightAware ADS-B
Thu 02:04:03 PM 29.3200 -104.8030 161° South 316 364 41,000  Level FlightAware ADS-B
Thu 02:04:39 PM 29.2770 -104.7860 161° South 316 364 41,000  Level FlightAware ADS-B
Thu 02:05:11 PM 29.1700 -104.7540 165° South 318 366 41,000  Level FlightAware ADS-B
Thu 02:06:19 PM 29.0750 -104.7190 162° South 319 367 41,000  Level FlightAware ADS-B
Thu 02:06:49 PM 29.0320 -104.7030 162° South 319 367 41,000  Level FlightAware ADS-B
Thu 02:07:25 PM 28.9830 -104.6850 162° South 319 367 41,000  Level FlightAware ADS-B
Thu 02:08:03 PM 28.9310 -104.6660 162° South 320 368 41,000  Level FlightAware ADS-B
Thu 02:08:39 PM 28.8780 -104.6460 162° South 321 369 41,000  Level FlightAware ADS-B
Thu 02:09:17 PM 28.8250 -104.6270 163° South 321 369 41,000  Level FlightAware ADS-B
Thu 02:09:47 PM 28.7830 -104.6120 163° South 321 369 41,000  Level FlightAware ADS-B
Thu 02:10:40 PM 28.7070 -104.5830 161° South 322 371 41,000  Level FlightAware ADS-B
Thu 02:11:17 PM 28.6550 -104.5640 162° South 322 371 41,000  Level FlightAware ADS-B
Thu 02:11:39 PM 28.6230 -104.5530 163° South 323 372 41,000  Level FlightAware ADS-B
Thu 02:12:59 PM 28.5080 -104.5110 162° South 325 374 41,000  Level FlightAware ADS-B
Thu 02:13:59 PM 28.4220 -104.4790 162° South 326 375 41,000  Level FlightAware ADS-B
Thu 02:14:35 PM 28.3680 -104.4600 163° South 327 376 41,000  Level FlightAware ADS-B
Thu 02:15:07 PM 28.3230 -104.4430 162° South 326 375 41,000  Level FlightAware ADS-B
Thu 02:15:43 PM 28.2710 -104.4240 162° South 326 375 41,000  Level FlightAware ADS-B
Thu 02:16:43 PM 28.1840 -104.3930 163° South 327 376 41,000  Level FlightAware ADS-B
Thu 02:17:11 PM 28.1440 -104.3790 163° South 327 376 41,000  Level FlightAware ADS-B
Thu 02:17:43 PM 28.0980 -104.3620 162° South 328 377 41,000  Level FlightAware ADS-B
Thu 02:18:32 PM 28.0290 -104.3370 162° South 328 377 41,000  Level FlightAware ADS-B
Thu 02:19:01 PM 27.9870 -104.3220 162° South 329 379 41,000  Level FlightAware ADS-B
Thu 02:19:43 PM 27.9250 -104.2990 162° South 330 380 41,000  Level FlightAware ADS-B
Thu 02:20:15 PM 27.8780 -104.2820 162° South 331 381 41,000  Level FlightAware ADS-B
Thu 02:20:53 PM 27.8210 -104.2620 163° South 332 382 41,000  Level FlightAware ADS-B
Thu 02:21:01 PM 27.8100 -104.2580 162° South 333 383 41,000  Level FlightAware ADS-B
Thu 02:22:26 PM 27.6840 -104.2130 162° South 334 384 41,000  Level FlightAware ADS-B
Thu 02:22:59 PM 27.6360 -104.1960 163° South 336 387 41,000  Level FlightAware ADS-B
Thu 02:23:39 PM 27.5750 -104.1740 162° South 335 386 41,000  Level FlightAware ADS-B
Thu 02:24:43 PM 27.4820 -104.1410 163° South 335 386 41,000  Level FlightAware ADS-B
Thu 02:25:09 PM 27.4420 -104.1270 163° South 335 386 41,000  Level FlightAware ADS-B
Thu 02:26:09 PM 27.3530 -104.0940 162° South 337 388 41,000  Level FlightAware ADS-B
Thu 02:26:46 PM 27.3060 -104.0770 162° South 337 388 41,000  Level FlightAware ADS-B
Thu 02:27:21 PM 27.2620 -104.0610 162° South 337 388 41,000  Level FlightAware ADS-B
Thu 02:27:57 PM 27.2170 -104.0450 162° South 337 388 41,000  Level FlightAware ADS-B
Thu 02:28:34 PM 27.1700 -104.0280 162° South 337 388 41,000  Level FlightAware ADS-B
Thu 02:29:20 PM 27.1120 -104.0060 161° South 337 388 41,000  Level FlightAware ADS-B
Thu 02:30:20 PM 27.0360 -103.9790 162° South 337 388 41,000  Level FlightAware ADS-B
Thu 02:30:56 PM 26.9910 -103.9620 161° South 337 388 41,000  Level FlightAware ADS-B
Thu 02:31:45 PM 26.9290 -103.9400 162° South 337 388 41,000  Level FlightAware ADS-B
Thu 02:32:09 PM 26.8990 -103.9290 162° South 337 388 41,000  Level FlightAware ADS-B
Thu 02:33:22 PM 26.8070 -103.8950 162° South 337 388 41,000  Level FlightAware ADS-B
Thu 02:33:58 PM 26.7620 -103.8790 162° South 337 388 41,000  Level FlightAware ADS-B
Thu 02:34:34 PM 26.7160 -103.8620 162° South 337 388 41,000  Level FlightAware ADS-B
Thu 02:35:36 PM 26.6380 -103.8340 162° South 337 388 41,000 -3,948 Level FlightAware ADS-B
Thu 02:38:00 PM 26.4535 -103.7604 160° South  Level Estimated
Thu 02:39:00 PM 26.3767 -103.7298 160° South  Level Estimated
Thu 02:40:00 PM 26.2998 -103.6992 160° South  Level Estimated
Thu 02:41:00 PM 26.2229 -103.6687 160° South  Level Estimated
Thu 02:41:35 PM 26.0070 -103.5790 160° South 270 311 13,300  Level FlightAware ADS-B
Thu 02:42:00 PM 26.1460 -103.6382 160° South  Level Estimated
Thu 02:42:20 PM 25.9550 -103.5590 161° South 262 302 11,700  Level FlightAware ADS-B
Thu 02:43:00 PM 25.9080 -103.5410 161° South 259 298 10,300 -1,385 Descending FlightAware ADS-B
Thu 02:43:38 PM 25.8680 -103.5250 160° South 259 298 9,900 -381 Descending FlightAware ADS-B
Thu 02:44:03 PM 25.8440 -103.5160 161° South 259 298 9,900  Level FlightAware ADS-B
Thu 02:44:25 PM 25.8220 -103.5080 162° South 259 298 9,900  Level FlightAware ADS-B
Thu 02:45:01 PM 25.7880 -103.4950 161° South 259 298 9,900 -701 Level FlightAware ADS-B
Thu 02:47:00 PM 25.6350 -103.4362 146° Southeast  Level Estimated
Thu 02:47:42 PM 25.6260 -103.4320 270° West 219 252 7,600  Level FlightAware ADS-B
Thu 02:48:00 PM 25.5667 -103.4165 270° West  Level FlightAware Approximate
Thu 02:48:19 PM 25.5960 -103.4210 162° South 221 254 7,600  Level FlightAware ADS-B
Thu 02:49:02 PM 25.5560 -103.3880 143° Southeast 223 257 7,100 -923 Descending FlightAware ADS-B
Thu 02:49:37 PM 25.5440 -103.3520 110° East 217 250 6,400 -1,200 Descending FlightAware ADS-B
Thu 02:50:07 PM 25.5330 -103.3210 111° Southeast 211 243 5,800 -800 Descending FlightAware ADS-B
Thu 02:50:37 PM 25.5230 -103.2910 110° East 198 228 5,600 -171 Descending FlightAware ADS-B
Thu 02:51:17 PM 25.5080 -103.2570 116° Southeast 189 217 5,600  Level FlightAware ADS-B
Thu 02:51:32 PM 25.4970 -103.2520 158° South 190 219 5,600 -600 Level FlightAware ADS-B
Thu 02:52:17 PM 25.4740 -103.2860 233° Southwest 217 250 5,000 -675 Descending FlightAware ADS-B
Thu 02:52:52 PM 25.4850 -103.3200 290° West 204 235 4,700 -343 Descending FlightAware ADS-B
Thu 02:53:27 PM 25.5050 -103.3430 314° West 153 176 4,600 -369 Descending FlightAware ADS-B
Thu 02:53:57 PM 25.5190 -103.3580 316° Northwest 135 155 4,300 -677 Descending FlightAware ADS-B
Thu 02:54:29 PM 25.5310 -103.3710 316° Northwest 106 122 3,900 -700 Descending FlightAware ADS-B
Thu 02:54:57 PM 25.5420 -103.3820 318° Northwest 105 121 3,600 -566 Descending FlightAware ADS-B
Thu 02:55:22 PM 25.5500 -103.3910 315° West 105 121 3,400 -383 Descending FlightAware ADS-B
Thu 02:55:44 PM 25.5580 -103.4000 315° West 106 122 3,300 -273 Descending FlightAware ADS-B

Login

Don't have an account? Register now (free) for customized features, flight alerts, and more!